sensor_id;sensor_type;location;lat;lon;timestamp;P1;durP1;ratioP1;P2;durP2;ratioP2
75050;SDS011;63628;47.656;11.310;2023-09-30T00:01:45;5.22;;;2.85;;
75050;SDS011;63628;47.656;11.310;2023-09-30T00:04:12;5.18;;;3.08;;
75050;SDS011;63628;47.656;11.310;2023-09-30T00:06:38;6.03;;;3.72;;
75050;SDS011;63628;47.656;11.310;2023-09-30T00:09:05;6.03;;;3.83;;
75050;SDS011;63628;47.656;11.310;2023-09-30T00:11:32;13.57;;;6.85;;
75050;SDS011;63628;47.656;11.310;2023-09-30T00:14:00;13.23;;;6.47;;
75050;SDS011;63628;47.656;11.310;2023-09-30T00:16:27;18.48;;;8.40;;
75050;SDS011;63628;47.656;11.310;2023-09-30T00:18:53;6.00;;;3.63;;
75050;SDS011;63628;47.656;11.310;2023-09-30T00:21:21;5.93;;;3.72;;
75050;SDS011;63628;47.656;11.310;2023-09-30T00:23:49;11.27;;;6.05;;
75050;SDS011;63628;47.656;11.310;2023-09-30T00:26:15;6.45;;;3.65;;
75050;SDS011;63628;47.656;11.310;2023-09-30T00:28:42;5.63;;;3.63;;
75050;SDS011;63628;47.656;11.310;2023-09-30T00:31:10;4.90;;;3.15;;
75050;SDS011;63628;47.656;11.310;2023-09-30T00:33:37;6.23;;;3.60;;
75050;SDS011;63628;47.656;11.310;2023-09-30T00:36:05;5.65;;;3.35;;
75050;SDS011;63628;47.656;11.310;2023-09-30T00:38:33;18.13;;;8.55;;
75050;SDS011;63628;47.656;11.310;2023-09-30T00:41:00;20.60;;;9.82;;
75050;SDS011;63628;47.656;11.310;2023-09-30T00:43:27;7.53;;;4.35;;
75050;SDS011;63628;47.656;11.310;2023-09-30T00:45:56;6.80;;;3.65;;
75050;SDS011;63628;47.656;11.310;2023-09-30T00:48:32;6.53;;;3.97;;
75050;SDS011;63628;47.656;11.310;2023-09-30T00:51:00;6.13;;;4.05;;
75050;SDS011;63628;47.656;11.310;2023-09-30T00:53:27;6.75;;;3.88;;
75050;SDS011;63628;47.656;11.310;2023-09-30T00:55:55;6.35;;;3.60;;
75050;SDS011;63628;47.656;11.310;2023-09-30T00:58:23;6.75;;;4.03;;
75050;SDS011;63628;47.656;11.310;2023-09-30T01:00:53;6.03;;;3.38;;
75050;SDS011;63628;47.656;11.310;2023-09-30T01:03:22;9.82;;;6.03;;
75050;SDS011;63628;47.656;11.310;2023-09-30T01:05:51;6.50;;;3.83;;
75050;SDS011;63628;47.656;11.310;2023-09-30T01:08:17;7.43;;;4.25;;
75050;SDS011;63628;47.656;11.310;2023-09-30T01:10:46;6.87;;;4.37;;
75050;SDS011;63628;47.656;11.310;2023-09-30T01:13:13;7.93;;;4.20;;
75050;SDS011;63628;47.656;11.310;2023-09-30T01:15:40;5.25;;;3.50;;
75050;SDS011;63628;47.656;11.310;2023-09-30T01:18:07;6.97;;;4.60;;
75050;SDS011;63628;47.656;11.310;2023-09-30T01:20:34;7.38;;;4.85;;
75050;SDS011;63628;47.656;11.310;2023-09-30T01:23:02;10.48;;;4.75;;
75050;SDS011;63628;47.656;11.310;2023-09-30T01:27:56;7.45;;;4.50;;
75050;SDS011;63628;47.656;11.310;2023-09-30T01:30:26;8.38;;;4.85;;
75050;SDS011;63628;47.656;11.310;2023-09-30T01:32:53;7.78;;;4.28;;
75050;SDS011;63628;47.656;11.310;2023-09-30T01:35:19;8.65;;;4.85;;
75050;SDS011;63628;47.656;11.310;2023-09-30T01:37:48;7.80;;;4.28;;
75050;SDS011;63628;47.656;11.310;2023-09-30T01:40:16;12.25;;;5.78;;
75050;SDS011;63628;47.656;11.310;2023-09-30T01:42:44;24.05;;;11.45;;
75050;SDS011;63628;47.656;11.310;2023-09-30T01:45:11;18.00;;;8.93;;
75050;SDS011;63628;47.656;11.310;2023-09-30T01:47:38;10.48;;;6.57;;
75050;SDS011;63628;47.656;11.310;2023-09-30T01:50:05;9.20;;;5.35;;
75050;SDS011;63628;47.656;11.310;2023-09-30T01:52:32;6.82;;;4.05;;
75050;SDS011;63628;47.656;11.310;2023-09-30T01:54:59;8.95;;;4.90;;
75050;SDS011;63628;47.656;11.310;2023-09-30T01:57:27;9.35;;;5.28;;
75050;SDS011;63628;47.656;11.310;2023-09-30T01:59:54;8.73;;;4.90;;
75050;SDS011;63628;47.656;11.310;2023-09-30T02:02:21;7.55;;;4.45;;
75050;SDS011;63628;47.656;11.310;2023-09-30T02:04:48;9.52;;;4.88;;
75050;SDS011;63628;47.656;11.310;2023-09-30T02:07:14;8.70;;;4.68;;
75050;SDS011;63628;47.656;11.310;2023-09-30T02:09:41;8.52;;;4.80;;
75050;SDS011;63628;47.656;11.310;2023-09-30T02:12:08;10.93;;;5.47;;
75050;SDS011;63628;47.656;11.310;2023-09-30T02:14:36;8.65;;;4.88;;
75050;SDS011;63628;47.656;11.310;2023-09-30T02:17:04;8.48;;;4.75;;
75050;SDS011;63628;47.656;11.310;2023-09-30T02:19:31;9.27;;;4.93;;
75050;SDS011;63628;47.656;11.310;2023-09-30T02:22:00;8.70;;;4.43;;
75050;SDS011;63628;47.656;11.310;2023-09-30T02:24:27;10.73;;;5.25;;
75050;SDS011;63628;47.656;11.310;2023-09-30T02:26:53;9.02;;;5.05;;
75050;SDS011;63628;47.656;11.310;2023-09-30T02:29:20;9.77;;;5.32;;
75050;SDS011;63628;47.656;11.310;2023-09-30T02:31:48;8.13;;;4.45;;
75050;SDS011;63628;47.656;11.310;2023-09-30T02:34:15;9.27;;;5.10;;
75050;SDS011;63628;47.656;11.310;2023-09-30T02:36:41;8.38;;;4.95;;
75050;SDS011;63628;47.656;11.310;2023-09-30T02:39:08;9.00;;;5.00;;
75050;SDS011;63628;47.656;11.310;2023-09-30T02:41:35;7.60;;;4.68;;
75050;SDS011;63628;47.656;11.310;2023-09-30T02:44:03;8.75;;;4.88;;
75050;SDS011;63628;47.656;11.310;2023-09-30T02:46:31;9.32;;;5.30;;
75050;SDS011;63628;47.656;11.310;2023-09-30T02:49:00;9.77;;;5.38;;
75050;SDS011;63628;47.656;11.310;2023-09-30T02:51:27;8.85;;;5.15;;
75050;SDS011;63628;47.656;11.310;2023-09-30T02:53:54;10.93;;;5.65;;
75050;SDS011;63628;47.656;11.310;2023-09-30T02:56:22;8.90;;;4.97;;
75050;SDS011;63628;47.656;11.310;2023-09-30T02:58:50;10.67;;;5.80;;
75050;SDS011;63628;47.656;11.310;2023-09-30T03:01:20;10.02;;;5.30;;
75050;SDS011;63628;47.656;11.310;2023-09-30T03:03:47;8.80;;;5.07;;
75050;SDS011;63628;47.656;11.310;2023-09-30T03:06:15;7.95;;;4.72;;
75050;SDS011;63628;47.656;11.310;2023-09-30T03:08:44;9.43;;;5.22;;
75050;SDS011;63628;47.656;11.310;2023-09-30T03:11:11;8.65;;;5.32;;
75050;SDS011;63628;47.656;11.310;2023-09-30T03:13:39;10.35;;;5.28;;
75050;SDS011;63628;47.656;11.310;2023-09-30T03:16:08;23.40;;;10.48;;
75050;SDS011;63628;47.656;11.310;2023-09-30T03:18:35;28.95;;;11.77;;
75050;SDS011;63628;47.656;11.310;2023-09-30T03:21:02;14.55;;;6.78;;
75050;SDS011;63628;47.656;11.310;2023-09-30T03:23:41;11.40;;;6.05;;
75050;SDS011;63628;47.656;11.310;2023-09-30T03:26:07;12.15;;;6.32;;
75050;SDS011;63628;47.656;11.310;2023-09-30T03:28:36;10.32;;;5.22;;
75050;SDS011;63628;47.656;11.310;2023-09-30T03:31:04;9.85;;;5.22;;
75050;SDS011;63628;47.656;11.310;2023-09-30T03:33:31;10.45;;;6.03;;
75050;SDS011;63628;47.656;11.310;2023-09-30T03:35:59;10.82;;;5.50;;
75050;SDS011;63628;47.656;11.310;2023-09-30T03:38:25;10.93;;;5.85;;
75050;SDS011;63628;47.656;11.310;2023-09-30T03:40:53;10.45;;;5.50;;
75050;SDS011;63628;47.656;11.310;2023-09-30T03:43:21;9.70;;;5.32;;
75050;SDS011;63628;47.656;11.310;2023-09-30T03:45:47;10.07;;;5.55;;
75050;SDS011;63628;47.656;11.310;2023-09-30T03:48:14;9.85;;;5.10;;
75050;SDS011;63628;47.656;11.310;2023-09-30T03:50:41;9.27;;;5.18;;
75050;SDS011;63628;47.656;11.310;2023-09-30T03:53:08;11.77;;;5.57;;
75050;SDS011;63628;47.656;11.310;2023-09-30T03:55:34;11.00;;;5.70;;
75050;SDS011;63628;47.656;11.310;2023-09-30T03:58:04;9.85;;;5.57;;
75050;SDS011;63628;47.656;11.310;2023-09-30T04:00:31;9.85;;;5.50;;
75050;SDS011;63628;47.656;11.310;2023-09-30T04:02:58;10.13;;;5.40;;
75050;SDS011;63628;47.656;11.310;2023-09-30T04:05:25;9.35;;;5.15;;
75050;SDS011;63628;47.656;11.310;2023-09-30T04:07:56;10.98;;;5.28;;
75050;SDS011;63628;47.656;11.310;2023-09-30T04:10:23;10.02;;;5.10;;
75050;SDS011;63628;47.656;11.310;2023-09-30T04:12:50;12.82;;;6.18;;
75050;SDS011;63628;47.656;11.310;2023-09-30T04:15:20;10.90;;;5.95;;
75050;SDS011;63628;47.656;11.310;2023-09-30T04:17:47;11.38;;;5.65;;
75050;SDS011;63628;47.656;11.310;2023-09-30T04:20:15;10.90;;;5.68;;
75050;SDS011;63628;47.656;11.310;2023-09-30T04:22:49;10.50;;;5.53;;
75050;SDS011;63628;47.656;11.310;2023-09-30T04:25:17;14.32;;;6.75;;
75050;SDS011;63628;47.656;11.310;2023-09-30T04:27:44;11.48;;;5.75;;
75050;SDS011;63628;47.656;11.310;2023-09-30T04:30:15;10.70;;;5.53;;
75050;SDS011;63628;47.656;11.310;2023-09-30T04:32:43;10.40;;;5.70;;
75050;SDS011;63628;47.656;11.310;2023-09-30T04:35:10;9.90;;;5.67;;
75050;SDS011;63628;47.656;11.310;2023-09-30T04:37:37;11.93;;;5.90;;
75050;SDS011;63628;47.656;11.310;2023-09-30T04:40:04;10.52;;;5.90;;
75050;SDS011;63628;47.656;11.310;2023-09-30T04:42:42;10.07;;;5.63;;
75050;SDS011;63628;47.656;11.310;2023-09-30T04:45:11;11.23;;;5.93;;
75050;SDS011;63628;47.656;11.310;2023-09-30T04:47:38;11.57;;;5.63;;
75050;SDS011;63628;47.656;11.310;2023-09-30T04:50:07;11.07;;;5.78;;
75050;SDS011;63628;47.656;11.310;2023-09-30T04:52:34;11.35;;;5.57;;
75050;SDS011;63628;47.656;11.310;2023-09-30T04:55:01;10.07;;;5.70;;
75050;SDS011;63628;47.656;11.310;2023-09-30T04:57:29;10.95;;;5.50;;
75050;SDS011;63628;47.656;11.310;2023-09-30T04:59:58;10.52;;;5.75;;
75050;SDS011;63628;47.656;11.310;2023-09-30T05:02:25;12.57;;;6.63;;
75050;SDS011;63628;47.656;11.310;2023-09-30T05:04:53;12.05;;;6.20;;
75050;SDS011;63628;47.656;11.310;2023-09-30T05:07:21;10.32;;;5.68;;
75050;SDS011;63628;47.656;11.310;2023-09-30T05:09:48;10.10;;;5.70;;
75050;SDS011;63628;47.656;11.310;2023-09-30T05:12:15;11.65;;;5.93;;
75050;SDS011;63628;47.656;11.310;2023-09-30T05:14:42;11.52;;;6.30;;
75050;SDS011;63628;47.656;11.310;2023-09-30T05:17:09;12.32;;;6.13;;
75050;SDS011;63628;47.656;11.310;2023-09-30T05:19:36;11.32;;;5.90;;
75050;SDS011;63628;47.656;11.310;2023-09-30T05:22:03;11.63;;;5.72;;
75050;SDS011;63628;47.656;11.310;2023-09-30T05:24:32;10.77;;;5.82;;
75050;SDS011;63628;47.656;11.310;2023-09-30T05:27:01;12.35;;;6.60;;
75050;SDS011;63628;47.656;11.310;2023-09-30T05:29:28;14.23;;;7.15;;
75050;SDS011;63628;47.656;11.310;2023-09-30T05:31:55;18.55;;;9.15;;
75050;SDS011;63628;47.656;11.310;2023-09-30T05:34:22;11.35;;;5.70;;
75050;SDS011;63628;47.656;11.310;2023-09-30T05:36:49;11.25;;;5.68;;
75050;SDS011;63628;47.656;11.310;2023-09-30T05:39:18;11.75;;;6.05;;
75050;SDS011;63628;47.656;11.310;2023-09-30T05:41:48;12.53;;;6.50;;
75050;SDS011;63628;47.656;11.310;2023-09-30T05:44:14;16.27;;;7.63;;
75050;SDS011;63628;47.656;11.310;2023-09-30T05:46:41;10.65;;;5.63;;
75050;SDS011;63628;47.656;11.310;2023-09-30T05:49:10;10.82;;;5.55;;
75050;SDS011;63628;47.656;11.310;2023-09-30T05:51:39;11.75;;;6.00;;
75050;SDS011;63628;47.656;11.310;2023-09-30T05:54:07;12.52;;;6.53;;
75050;SDS011;63628;47.656;11.310;2023-09-30T05:56:36;12.52;;;5.90;;
75050;SDS011;63628;47.656;11.310;2023-09-30T05:59:05;10.63;;;5.78;;
75050;SDS011;63628;47.656;11.310;2023-09-30T06:03:59;12.30;;;6.07;;
75050;SDS011;63628;47.656;11.310;2023-09-30T06:06:27;11.98;;;5.68;;
75050;SDS011;63628;47.656;11.310;2023-09-30T06:08:56;10.77;;;6.00;;
75050;SDS011;63628;47.656;11.310;2023-09-30T06:11:26;10.73;;;5.75;;
75050;SDS011;63628;47.656;11.310;2023-09-30T06:13:56;10.82;;;5.97;;
75050;SDS011;63628;47.656;11.310;2023-09-30T06:18:53;11.00;;;5.30;;
75050;SDS011;63628;47.656;11.310;2023-09-30T06:21:20;12.15;;;6.30;;
75050;SDS011;63628;47.656;11.310;2023-09-30T06:23:47;12.95;;;6.65;;
75050;SDS011;63628;47.656;11.310;2023-09-30T06:26:14;19.90;;;9.80;;
75050;SDS011;63628;47.656;11.310;2023-09-30T06:28:44;16.92;;;8.93;;
75050;SDS011;63628;47.656;11.310;2023-09-30T06:31:11;20.65;;;9.02;;
75050;SDS011;63628;47.656;11.310;2023-09-30T06:33:39;15.27;;;7.88;;
75050;SDS011;63628;47.656;11.310;2023-09-30T06:36:10;10.50;;;5.63;;
75050;SDS011;63628;47.656;11.310;2023-09-30T06:38:37;12.30;;;5.95;;
75050;SDS011;63628;47.656;11.310;2023-09-30T06:41:04;11.50;;;5.78;;
75050;SDS011;63628;47.656;11.310;2023-09-30T06:43:32;10.68;;;5.55;;
75050;SDS011;63628;47.656;11.310;2023-09-30T06:45:59;11.23;;;6.25;;
75050;SDS011;63628;47.656;11.310;2023-09-30T06:48:26;11.07;;;5.82;;
75050;SDS011;63628;47.656;11.310;2023-09-30T06:50:54;11.32;;;5.95;;
75050;SDS011;63628;47.656;11.310;2023-09-30T06:53:21;11.32;;;5.60;;
75050;SDS011;63628;47.656;11.310;2023-09-30T06:55:48;11.70;;;6.00;;
75050;SDS011;63628;47.656;11.310;2023-09-30T06:58:14;11.20;;;6.35;;
75050;SDS011;63628;47.656;11.310;2023-09-30T07:00:47;9.63;;;4.93;;
75050;SDS011;63628;47.656;11.310;2023-09-30T07:03:15;20.85;;;9.48;;
75050;SDS011;63628;47.656;11.310;2023-09-30T07:05:42;21.98;;;9.60;;
75050;SDS011;63628;47.656;11.310;2023-09-30T07:08:10;13.10;;;6.38;;
75050;SDS011;63628;47.656;11.310;2023-09-30T07:10:37;12.15;;;6.25;;
75050;SDS011;63628;47.656;11.310;2023-09-30T07:13:04;11.93;;;6.20;;
75050;SDS011;63628;47.656;11.310;2023-09-30T07:15:32;13.98;;;7.10;;
75050;SDS011;63628;47.656;11.310;2023-09-30T07:17:59;11.45;;;5.63;;
75050;SDS011;63628;47.656;11.310;2023-09-30T07:20:26;12.60;;;6.50;;
75050;SDS011;63628;47.656;11.310;2023-09-30T07:22:54;10.95;;;5.93;;
75050;SDS011;63628;47.656;11.310;2023-09-30T07:25:42;13.48;;;6.03;;
75050;SDS011;63628;47.656;11.310;2023-09-30T07:28:09;13.30;;;6.53;;
75050;SDS011;63628;47.656;11.310;2023-09-30T07:33:05;12.05;;;6.32;;
75050;SDS011;63628;47.656;11.310;2023-09-30T07:35:33;12.68;;;6.28;;
75050;SDS011;63628;47.656;11.310;2023-09-30T07:38:00;9.88;;;5.82;;
75050;SDS011;63628;47.656;11.310;2023-09-30T07:40:27;12.50;;;6.28;;
75050;SDS011;63628;47.656;11.310;2023-09-30T07:42:55;17.63;;;7.70;;
75050;SDS011;63628;47.656;11.310;2023-09-30T07:45:22;12.80;;;6.32;;
75050;SDS011;63628;47.656;11.310;2023-09-30T07:47:49;22.95;;;9.93;;
75050;SDS011;63628;47.656;11.310;2023-09-30T07:50:17;15.57;;;8.10;;
75050;SDS011;63628;47.656;11.310;2023-09-30T07:52:44;21.30;;;10.00;;
75050;SDS011;63628;47.656;11.310;2023-09-30T07:55:12;20.55;;;8.77;;
75050;SDS011;63628;47.656;11.310;2023-09-30T07:57:40;13.45;;;6.65;;
75050;SDS011;63628;47.656;11.310;2023-09-30T08:00:12;11.90;;;6.13;;
75050;SDS011;63628;47.656;11.310;2023-09-30T08:02:43;11.50;;;6.00;;
75050;SDS011;63628;47.656;11.310;2023-09-30T08:05:11;20.92;;;9.32;;
75050;SDS011;63628;47.656;11.310;2023-09-30T08:07:38;23.00;;;9.05;;
75050;SDS011;63628;47.656;11.310;2023-09-30T08:10:05;15.55;;;6.88;;
75050;SDS011;63628;47.656;11.310;2023-09-30T08:12:38;11.93;;;6.80;;
75050;SDS011;63628;47.656;11.310;2023-09-30T08:15:05;11.32;;;6.47;;
75050;SDS011;63628;47.656;11.310;2023-09-30T08:17:34;10.10;;;5.20;;
75050;SDS011;63628;47.656;11.310;2023-09-30T08:20:01;10.98;;;5.25;;
75050;SDS011;63628;47.656;11.310;2023-09-30T08:22:27;13.40;;;6.75;;
75050;SDS011;63628;47.656;11.310;2023-09-30T08:24:54;16.98;;;8.82;;
75050;SDS011;63628;47.656;11.310;2023-09-30T08:27:21;21.58;;;9.75;;
75050;SDS011;63628;47.656;11.310;2023-09-30T08:29:50;20.23;;;9.40;;
75050;SDS011;63628;47.656;11.310;2023-09-30T08:32:17;24.55;;;10.32;;
75050;SDS011;63628;47.656;11.310;2023-09-30T08:34:45;25.45;;;10.27;;
75050;SDS011;63628;47.656;11.310;2023-09-30T08:37:12;22.10;;;8.68;;
75050;SDS011;63628;47.656;11.310;2023-09-30T08:39:38;21.92;;;9.48;;
75050;SDS011;63628;47.656;11.310;2023-09-30T08:42:10;19.65;;;8.43;;
75050;SDS011;63628;47.656;11.310;2023-09-30T08:44:40;16.92;;;8.38;;
75050;SDS011;63628;47.656;11.310;2023-09-30T08:47:07;19.25;;;9.20;;
75050;SDS011;63628;47.656;11.310;2023-09-30T08:49:37;19.67;;;9.02;;
75050;SDS011;63628;47.656;11.310;2023-09-30T08:52:07;18.35;;;8.43;;
75050;SDS011;63628;47.656;11.310;2023-09-30T08:54:36;17.38;;;7.55;;
75050;SDS011;63628;47.656;11.310;2023-09-30T08:57:04;20.80;;;8.55;;
75050;SDS011;63628;47.656;11.310;2023-09-30T08:59:31;18.02;;;8.45;;
75050;SDS011;63628;47.656;11.310;2023-09-30T09:02:02;17.05;;;7.97;;
75050;SDS011;63628;47.656;11.310;2023-09-30T09:04:30;26.80;;;10.32;;
75050;SDS011;63628;47.656;11.310;2023-09-30T09:06:57;18.48;;;8.02;;
75050;SDS011;63628;47.656;11.310;2023-09-30T09:09:25;29.83;;;10.23;;
75050;SDS011;63628;47.656;11.310;2023-09-30T09:11:52;26.33;;;9.88;;
75050;SDS011;63628;47.656;11.310;2023-09-30T09:14:19;32.58;;;13.10;;
75050;SDS011;63628;47.656;11.310;2023-09-30T09:16:52;17.23;;;8.88;;
75050;SDS011;63628;47.656;11.310;2023-09-30T09:19:20;15.85;;;7.43;;
75050;SDS011;63628;47.656;11.310;2023-09-30T09:24:28;15.18;;;6.97;;
75050;SDS011;63628;47.656;11.310;2023-09-30T09:27:09;18.08;;;7.85;;
75050;SDS011;63628;47.656;11.310;2023-09-30T09:29:37;14.23;;;6.10;;
75050;SDS011;63628;47.656;11.310;2023-09-30T09:32:08;14.82;;;7.18;;
75050;SDS011;63628;47.656;11.310;2023-09-30T09:34:35;14.77;;;6.82;;
75050;SDS011;63628;47.656;11.310;2023-09-30T09:37:12;14.23;;;6.10;;
75050;SDS011;63628;47.656;11.310;2023-09-30T09:39:51;15.48;;;6.70;;
75050;SDS011;63628;47.656;11.310;2023-09-30T09:42:29;17.00;;;7.05;;
75050;SDS011;63628;47.656;11.310;2023-09-30T09:44:57;16.35;;;7.30;;
75050;SDS011;63628;47.656;11.310;2023-09-30T09:47:24;15.80;;;7.30;;
75050;SDS011;63628;47.656;11.310;2023-09-30T09:49:51;15.00;;;7.18;;
75050;SDS011;63628;47.656;11.310;2023-09-30T09:52:19;14.32;;;6.53;;
75050;SDS011;63628;47.656;11.310;2023-09-30T09:54:47;17.58;;;7.50;;
75050;SDS011;63628;47.656;11.310;2023-09-30T09:57:17;15.98;;;6.85;;
75050;SDS011;63628;47.656;11.310;2023-09-30T09:59:45;22.77;;;7.95;;
75050;SDS011;63628;47.656;11.310;2023-09-30T10:02:14;16.48;;;7.57;;
75050;SDS011;63628;47.656;11.310;2023-09-30T10:04:42;18.52;;;7.38;;
75050;SDS011;63628;47.656;11.310;2023-09-30T10:07:10;17.25;;;6.72;;
75050;SDS011;63628;47.656;11.310;2023-09-30T10:09:41;14.35;;;7.72;;
75050;SDS011;63628;47.656;11.310;2023-09-30T10:12:13;17.17;;;7.25;;
75050;SDS011;63628;47.656;11.310;2023-09-30T10:14:42;15.45;;;6.38;;
75050;SDS011;63628;47.656;11.310;2023-09-30T10:17:10;16.40;;;7.47;;
75050;SDS011;63628;47.656;11.310;2023-09-30T10:19:42;12.82;;;6.32;;
75050;SDS011;63628;47.656;11.310;2023-09-30T10:22:35;12.30;;;5.90;;
75050;SDS011;63628;47.656;11.310;2023-09-30T10:25:02;17.10;;;7.85;;
75050;SDS011;63628;47.656;11.310;2023-09-30T10:31:13;16.88;;;7.35;;
75050;SDS011;63628;47.656;11.310;2023-09-30T10:36:44;13.90;;;6.05;;
75050;SDS011;63628;47.656;11.310;2023-09-30T10:39:12;21.65;;;8.70;;
75050;SDS011;63628;47.656;11.310;2023-09-30T10:41:49;19.27;;;9.32;;
75050;SDS011;63628;47.656;11.310;2023-09-30T10:44:32;20.50;;;8.55;;
75050;SDS011;63628;47.656;11.310;2023-09-30T10:47:01;20.38;;;8.48;;
75050;SDS011;63628;47.656;11.310;2023-09-30T10:50:03;18.73;;;8.10;;
75050;SDS011;63628;47.656;11.310;2023-09-30T10:53:17;15.25;;;6.68;;
75050;SDS011;63628;47.656;11.310;2023-09-30T10:55:44;13.93;;;6.07;;
75050;SDS011;63628;47.656;11.310;2023-09-30T10:58:12;13.57;;;6.15;;
75050;SDS011;63628;47.656;11.310;2023-09-30T11:00:39;14.20;;;6.28;;
75050;SDS011;63628;47.656;11.310;2023-09-30T11:03:10;14.50;;;6.40;;
75050;SDS011;63628;47.656;11.310;2023-09-30T11:05:38;13.10;;;5.72;;
75050;SDS011;63628;47.656;11.310;2023-09-30T11:08:25;14.63;;;6.93;;
75050;SDS011;63628;47.656;11.310;2023-09-30T11:10:55;16.92;;;7.38;;
75050;SDS011;63628;47.656;11.310;2023-09-30T11:13:22;11.65;;;5.72;;
75050;SDS011;63628;47.656;11.310;2023-09-30T11:15:59;18.67;;;7.82;;
75050;SDS011;63628;47.656;11.310;2023-09-30T11:18:28;17.48;;;8.52;;
75050;SDS011;63628;47.656;11.310;2023-09-30T11:21:03;16.77;;;7.05;;
75050;SDS011;63628;47.656;11.310;2023-09-30T11:23:31;13.32;;;6.10;;
75050;SDS011;63628;47.656;11.310;2023-09-30T11:25:57;11.35;;;5.43;;
75050;SDS011;63628;47.656;11.310;2023-09-30T11:28:25;19.02;;;8.63;;
75050;SDS011;63628;47.656;11.310;2023-09-30T11:30:54;14.85;;;6.93;;
75050;SDS011;63628;47.656;11.310;2023-09-30T11:33:22;18.38;;;7.32;;
75050;SDS011;63628;47.656;11.310;2023-09-30T11:36:00;20.92;;;8.40;;
75050;SDS011;63628;47.656;11.310;2023-09-30T11:38:27;18.08;;;7.90;;
75050;SDS011;63628;47.656;11.310;2023-09-30T11:40:58;19.45;;;7.80;;
75050;SDS011;63628;47.656;11.310;2023-09-30T11:43:31;19.95;;;8.77;;
75050;SDS011;63628;47.656;11.310;2023-09-30T11:46:06;17.85;;;8.40;;
75050;SDS011;63628;47.656;11.310;2023-09-30T11:48:35;17.67;;;7.93;;
75050;SDS011;63628;47.656;11.310;2023-09-30T11:51:04;18.27;;;7.35;;
75050;SDS011;63628;47.656;11.310;2023-09-30T11:53:31;16.52;;;7.97;;
75050;SDS011;63628;47.656;11.310;2023-09-30T11:55:59;18.75;;;8.13;;
75050;SDS011;63628;47.656;11.310;2023-09-30T11:58:26;15.13;;;7.00;;
75050;SDS011;63628;47.656;11.310;2023-09-30T12:00:53;19.42;;;8.25;;
75050;SDS011;63628;47.656;11.310;2023-09-30T12:03:21;20.45;;;8.07;;
75050;SDS011;63628;47.656;11.310;2023-09-30T12:05:48;16.92;;;7.68;;
75050;SDS011;63628;47.656;11.310;2023-09-30T12:08:16;12.77;;;5.95;;
75050;SDS011;63628;47.656;11.310;2023-09-30T12:10:42;20.65;;;8.20;;
75050;SDS011;63628;47.656;11.310;2023-09-30T12:13:10;17.75;;;7.72;;
75050;SDS011;63628;47.656;11.310;2023-09-30T12:15:38;18.98;;;8.23;;
75050;SDS011;63628;47.656;11.310;2023-09-30T12:18:05;17.83;;;8.00;;
75050;SDS011;63628;47.656;11.310;2023-09-30T12:20:33;21.75;;;8.23;;
75050;SDS011;63628;47.656;11.310;2023-09-30T12:23:00;15.50;;;7.63;;
75050;SDS011;63628;47.656;11.310;2023-09-30T12:25:28;18.75;;;7.40;;
75050;SDS011;63628;47.656;11.310;2023-09-30T12:27:56;17.35;;;7.72;;
75050;SDS011;63628;47.656;11.310;2023-09-30T12:30:22;21.85;;;8.63;;
75050;SDS011;63628;47.656;11.310;2023-09-30T12:32:49;19.10;;;7.57;;
75050;SDS011;63628;47.656;11.310;2023-09-30T12:35:16;21.67;;;8.35;;
75050;SDS011;63628;47.656;11.310;2023-09-30T12:37:42;15.45;;;7.20;;
75050;SDS011;63628;47.656;11.310;2023-09-30T12:40:12;18.20;;;6.95;;
75050;SDS011;63628;47.656;11.310;2023-09-30T12:42:42;19.55;;;7.13;;
75050;SDS011;63628;47.656;11.310;2023-09-30T12:45:09;20.48;;;9.00;;
75050;SDS011;63628;47.656;11.310;2023-09-30T12:47:36;24.52;;;9.27;;
75050;SDS011;63628;47.656;11.310;2023-09-30T12:50:03;18.10;;;8.25;;
75050;SDS011;63628;47.656;11.310;2023-09-30T12:52:30;19.80;;;7.30;;
75050;SDS011;63628;47.656;11.310;2023-09-30T12:54:58;19.05;;;8.30;;
75050;SDS011;63628;47.656;11.310;2023-09-30T12:57:25;17.35;;;7.85;;
75050;SDS011;63628;47.656;11.310;2023-09-30T12:59:53;18.75;;;8.60;;
75050;SDS011;63628;47.656;11.310;2023-09-30T13:02:20;12.02;;;6.07;;
75050;SDS011;63628;47.656;11.310;2023-09-30T13:04:47;18.55;;;7.70;;
75050;SDS011;63628;47.656;11.310;2023-09-30T13:07:15;14.07;;;6.25;;
75050;SDS011;63628;47.656;11.310;2023-09-30T13:09:42;18.50;;;7.72;;
75050;SDS011;63628;47.656;11.310;2023-09-30T13:12:08;14.80;;;6.35;;
75050;SDS011;63628;47.656;11.310;2023-09-30T13:14:35;16.23;;;7.72;;
75050;SDS011;63628;47.656;11.310;2023-09-30T13:17:03;17.25;;;8.43;;
75050;SDS011;63628;47.656;11.310;2023-09-30T13:19:32;19.25;;;8.50;;
75050;SDS011;63628;47.656;11.310;2023-09-30T13:21:59;17.27;;;7.85;;
75050;SDS011;63628;47.656;11.310;2023-09-30T13:24:44;20.40;;;8.25;;
75050;SDS011;63628;47.656;11.310;2023-09-30T13:27:10;18.65;;;7.80;;
75050;SDS011;63628;47.656;11.310;2023-09-30T13:29:37;16.10;;;7.85;;
75050;SDS011;63628;47.656;11.310;2023-09-30T13:32:05;19.23;;;8.52;;
75050;SDS011;63628;47.656;11.310;2023-09-30T13:34:32;28.08;;;10.95;;
75050;SDS011;63628;47.656;11.310;2023-09-30T13:36:59;20.80;;;8.88;;
75050;SDS011;63628;47.656;11.310;2023-09-30T13:39:25;22.10;;;9.48;;
75050;SDS011;63628;47.656;11.310;2023-09-30T13:41:52;23.05;;;9.43;;
75050;SDS011;63628;47.656;11.310;2023-09-30T13:44:19;22.77;;;9.63;;
75050;SDS011;63628;47.656;11.310;2023-09-30T13:46:46;34.90;;;13.43;;
75050;SDS011;63628;47.656;11.310;2023-09-30T13:49:15;21.00;;;9.85;;
75050;SDS011;63628;47.656;11.310;2023-09-30T13:51:42;22.08;;;9.60;;
75050;SDS011;63628;47.656;11.310;2023-09-30T13:54:08;24.52;;;10.35;;
75050;SDS011;63628;47.656;11.310;2023-09-30T13:56:35;22.02;;;9.35;;
75050;SDS011;63628;47.656;11.310;2023-09-30T13:59:02;23.90;;;10.70;;
75050;SDS011;63628;47.656;11.310;2023-09-30T14:01:28;24.98;;;10.50;;
75050;SDS011;63628;47.656;11.310;2023-09-30T14:03:55;32.60;;;12.77;;
75050;SDS011;63628;47.656;11.310;2023-09-30T14:06:26;24.75;;;10.55;;
75050;SDS011;63628;47.656;11.310;2023-09-30T14:08:52;20.58;;;9.50;;
75050;SDS011;63628;47.656;11.310;2023-09-30T14:11:19;23.48;;;9.95;;
75050;SDS011;63628;47.656;11.310;2023-09-30T14:13:46;23.77;;;9.55;;
75050;SDS011;63628;47.656;11.310;2023-09-30T14:16:12;22.30;;;9.73;;
75050;SDS011;63628;47.656;11.310;2023-09-30T14:18:39;23.25;;;9.65;;
75050;SDS011;63628;47.656;11.310;2023-09-30T14:21:06;22.42;;;10.23;;
75050;SDS011;63628;47.656;11.310;2023-09-30T14:23:34;19.02;;;9.10;;
75050;SDS011;63628;47.656;11.310;2023-09-30T14:26:04;19.98;;;9.68;;
75050;SDS011;63628;47.656;11.310;2023-09-30T14:28:37;21.48;;;9.82;;
75050;SDS011;63628;47.656;11.310;2023-09-30T14:31:04;23.63;;;10.18;;
75050;SDS011;63628;47.656;11.310;2023-09-30T14:33:31;23.70;;;10.60;;
75050;SDS011;63628;47.656;11.310;2023-09-30T14:35:58;23.50;;;11.07;;
75050;SDS011;63628;47.656;11.310;2023-09-30T14:38:25;23.75;;;11.15;;
75050;SDS011;63628;47.656;11.310;2023-09-30T14:40:54;23.30;;;9.52;;
75050;SDS011;63628;47.656;11.310;2023-09-30T14:43:20;20.70;;;10.02;;
75050;SDS011;63628;47.656;11.310;2023-09-30T14:45:47;23.70;;;10.10;;
75050;SDS011;63628;47.656;11.310;2023-09-30T14:48:14;25.80;;;10.70;;
75050;SDS011;63628;47.656;11.310;2023-09-30T14:50:47;22.90;;;9.45;;